Time;durP1;ratioP1;P1;durP2;ratioP2;P2;SDS_P1;SDS_P2;PMS_P1;PMS_P2;Temp;Humidity;BMP_temperature;BMP_pressure;BME280_temperature;BME280_humidity;BME280_pressure;Samples;Min_cycle;Max_cycle;Signal;HPM_P1;HPM_P2
2021/06/10 00:08:15;;;;;;;6.8;4.7;;;;;;;12.91;100;98809.57;;;;
2021/06/10 00:18:14;;;;;;;10.6;6.1;;;;;;;12.76;100;98810.05;;;;
2021/06/10 00:28:13;;;;;;;7.5;5.4;;;;;;;12.56;100;98803.31;;;;
2021/06/10 00:38:12;;;;;;;6.2;3.5;;;;;;;12.45;100;98799.33;;;;
2021/06/10 00:48:11;;;;;;;7.2;4.2;;;;;;;12.37;100;98788.48;;;;
2021/06/10 00:58:09;;;;;;;11.2;5.8;;;;;;;12.29;100;98789.24;;;;
2021/06/10 01:08:08;;;;;;;9.8;4.5;;;;;;;12.17;100;98789.86;;;;
2021/06/10 01:18:07;;;;;;;7.3;4.9;;;;;;;12.02;100;98782.16;;;;
2021/06/10 01:28:05;;;;;;;6;4.7;;;;;;;11.87;100;98777.19;;;;
2021/06/10 01:38:04;;;;;;;9.9;5.2;;;;;;;11.7;100;98775.14;;;;
2021/06/10 01:48:03;;;;;;;9.1;4.9;;;;;;;11.49;100;98768.67;;;;
2021/06/10 01:58:02;;;;;;;8.3;6.9;;;;;;;11.41;100;98775.63;;;;
2021/06/10 02:08:00;;;;;;;10.8;7.6;;;;;;;11.35;100;98784.16;;;;
2021/06/10 02:17:59;;;;;;;10.3;6.8;;;;;;;11.29;100;98788.06;;;;
2021/06/10 02:27:58;;;;;;;9.3;7;;;;;;;11.22;100;98785.8;;;;
2021/06/10 02:37:58;;;;;;;10.9;8.4;;;;;;;11.13;100;98797.64;;;;
2021/06/10 02:47:55;;;;;;;14.2;7;;;;;;;11.08;100;98810.14;;;;
2021/06/10 02:57:54;;;;;;;8.7;6.9;;;;;;;11.25;100;98809.47;;;;
2021/06/10 03:07:52;;;;;;;14.6;11.2;;;;;;;11.45;100;98814.38;;;;
2021/06/10 03:17:51;;;;;;;11.4;10.1;;;;;;;11.72;100;98818.88;;;;
2021/06/10 03:27:50;;;;;;;11.8;9.4;;;;;;;11.92;100;98825.66;;;;
2021/06/10 03:37:48;;;;;;;15;9;;;;;;;12.17;100;98833.09;;;;
2021/06/10 03:47:47;;;;;;;11.3;8.9;;;;;;;12.48;100;98838.45;;;;
2021/06/10 03:57:46;;;;;;;9.3;8.2;;;;;;;12.9;100;98824.23;;;;
2021/06/10 04:07:45;;;;;;;12.2;7.6;;;;;;;13.27;100;98830.16;;;;
2021/06/10 04:17:44;;;;;;;10.9;7.7;;;;;;;13.67;100;98831.57;;;;
2021/06/10 04:27:42;;;;;;;26.5;8.6;;;;;;;13.91;100;98829.13;;;;
2021/06/10 04:37:41;;;;;;;10.5;6.3;;;;;;;14.27;100;98838.7;;;;
2021/06/10 04:47:40;;;;;;;8.9;7.4;;;;;;;14.72;100;98836.28;;;;
2021/06/10 04:57:40;;;;;;;12.7;9.1;;;;;;;14.99;100;98833.87;;;;
2021/06/10 05:07:40;;;;;;;15.3;9;;;;;;;15.36;100;98837.59;;;;
2021/06/10 05:17:38;;;;;;;18;9.6;;;;;;;15.67;100;98834.47;;;;
2021/06/10 05:27:37;;;;;;;16.8;13.5;;;;;;;16.13;100;98835.27;;;;
2021/06/10 05:37:36;;;;;;;23.5;11.9;;;;;;;16.44;100;98828.16;;;;
2021/06/10 05:47:35;;;;;;;14.7;10.2;;;;;;;16.94;100;98835.16;;;;
2021/06/10 05:57:35;;;;;;;13.9;8.6;;;;;;;17.21;100;98830.94;;;;
2021/06/10 06:07:34;;;;;;;10;8.4;;;;;;;17.5;100;98831.38;;;;
2021/06/10 06:17:34;;;;;;;11;7.9;;;;;;;17.82;100;98829.57;;;;
2021/06/10 06:27:33;;;;;;;15.1;8.2;;;;;;;18.17;99.60254;98837.09;;;;
2021/06/10 06:37:33;;;;;;;17.4;9.4;;;;;;;18.56;100;98836.95;;;;
2021/06/10 06:47:33;;;;;;;11.8;6.6;;;;;;;18.86;98.35352;98842.71;;;;
2021/06/10 06:57:32;;;;;;;12.3;7.8;;;;;;;18.97;95.33594;98848.42;;;;
2021/06/10 07:07:31;;;;;;;9.2;5.6;;;;;;;19.38;94.48242;98841.49;;;;
2021/06/10 07:17:32;;;;;;;9.9;5.7;;;;;;;19.76;92.78906;98849.72;;;;
2021/06/10 07:27:31;;;;;;;10;5;;;;;;;20.03;89.89355;98858.81;;;;
2021/06/10 07:37:31;;;;;;;7.6;5.2;;;;;;;20.4;88.91016;98864.61;;;;
2021/06/10 07:47:30;;;;;;;7.3;4.2;;;;;;;20.77;86.04688;98853.84;;;;
2021/06/10 07:57:30;;;;;;;11.3;5.8;;;;;;;21.31;84.89453;98858.98;;;;
2021/06/10 08:07:30;;;;;;;8.8;4.6;;;;;;;21.34;87.7959;98853.55;;;;
2021/06/10 08:17:33;;;;;;;5.4;2.4;;;;;;;21.09;75.99707;98852.38;;;;
2021/06/10 08:27:30;;;;;;;9.5;3;;;;;;;21.22;74.30664;98855.7;;;;
2021/06/10 08:37:31;;;;;;;4.6;2;;;;;;;21.51;75.98926;98872.17;;;;
2021/06/10 08:47:30;;;;;;;5.1;2.4;;;;;;;21.84;72.70703;98863.14;;;;
2021/06/10 08:57:31;;;;;;;4.6;2.5;;;;;;;22.39;72.40234;98869.61;;;;
2021/06/10 09:07:32;;;;;;;6.5;2.1;;;;;;;21.78;70.50586;98866.59;;;;
2021/06/10 09:17:32;;;;;;;4.4;1.8;;;;;;;22.19;67.42285;98870.2;;;;
2021/06/10 09:27:30;;;;;;;4.3;2.2;;;;;;;22.39;67.82617;98877.85;;;;
2021/06/10 09:37:32;;;;;;;3.9;1.8;;;;;;;22.73;64.46582;98875.05;;;;
2021/06/10 09:47:32;;;;;;;3.4;1.8;;;;;;;23.19;63.65918;98876.13;;;;
2021/06/10 09:57:31;;;;;;;2.7;1;;;;;;;23.53;59.73828;98871.26;;;;
2021/06/10 10:07:31;;;;;;;4.4;1.3;;;;;;;23.39;60.99219;98866.45;;;;
2021/06/10 10:17:31;;;;;;;10.6;1.9;;;;;;;23.5;60.52832;98858.25;;;;
2021/06/10 10:27:31;;;;;;;4.9;1.6;;;;;;;24.16;58.16016;98850.64;;;;
2021/06/10 10:37:31;;;;;;;3;1.4;;;;;;;24.26;56.32422;98831.34;;;;
2021/06/10 10:47:42;;;;;;;2.7;1.1;;;;;;;23.35;55.29785;98829.09;;;;
2021/06/10 10:57:45;;;;;;;4.4;2;;;;;;;23.55;54.05859;98827.63;;;;
2021/06/10 11:07:47;;;;;;;3.3;1.7;;;;;;;23.74;53.20313;98815.51;;;;
2021/06/10 11:17:32;;;;;;;2.6;1.3;;;;;;;23.99;55.83398;98806.11;;;;
2021/06/10 11:27:33;;;;;;;3.3;1.6;;;;;;;23.95;54.31934;98802.55;;;;
2021/06/10 11:37:33;;;;;;;3.3;1.1;;;;;;;24.43;53.41504;98782.96;;;;
2021/06/10 11:47:38;;;;;;;2.9;1.5;;;;;;;24.15;53.33496;98775.48;;;;
2021/06/10 11:57:34;;;;;;;4.2;1.7;;;;;;;24.84;51.90137;98769.54;;;;
2021/06/10 12:07:34;;;;;;;2.7;1.6;;;;;;;24.82;53.4502;98747.83;;;;
2021/06/10 12:17:34;;;;;;;2.8;1;;;;;;;24.69;52.64746;98738.42;;;;
2021/06/10 12:27:35;;;;;;;3.7;1.8;;;;;;;24.72;50.06836;98725.81;;;;
2021/06/10 12:37:35;;;;;;;3.3;1.7;;;;;;;25.35;50.19727;98719.29;;;;
2021/06/10 12:47:36;;;;;;;2.6;1.4;;;;;;;25.1;50.11035;98713.89;;;;
2021/06/10 12:57:36;;;;;;;2.6;1.4;;;;;;;25.14;48.12793;98695.36;;;;
2021/06/10 13:07:36;;;;;;;2.8;1.7;;;;;;;25.55;50.30176;98692.02;;;;
2021/06/10 13:17:37;;;;;;;4.2;1.6;;;;;;;26;49.65723;98672.31;;;;
2021/06/10 13:27:37;;;;;;;9.9;3;;;;;;;23.86;54.45996;98700.3;;;;
2021/06/10 13:37:38;;;;;;;3.5;2.2;;;;;;;22.76;58.35254;98704.7;;;;
2021/06/10 13:47:38;;;;;;;6.4;3.1;;;;;;;22.1;63.25977;98702.27;;;;
2021/06/10 13:57:38;;;;;;;7.7;4.3;;;;;;;22.04;66.41406;98699.87;;;;
2021/06/10 14:07:38;;;;;;;8;4.3;;;;;;;21.8;66.21582;98703.16;;;;
2021/06/10 14:17:38;;;;;;;8;3.1;;;;;;;23.62;63.33594;98684.55;;;;
2021/06/10 14:27:39;;;;;;;5.7;3;;;;;;;24.69;60.54785;98683.3;;;;
2021/06/10 14:37:38;;;;;;;8;2.6;;;;;;;24.12;59.75781;98692.83;;;;
2021/06/10 14:47:39;;;;;;;6.9;3;;;;;;;22.33;63.68848;98697.33;;;;
2021/06/10 14:57:39;;;;;;;7;3.5;;;;;;;22.08;65.4668;98694.41;;;;
2021/06/10 15:07:39;;;;;;;6;2.9;;;;;;;22.01;66.83887;98688.86;;;;
2021/06/10 15:17:39;;;;;;;5.9;3;;;;;;;21.88;70.42969;98674.63;;;;
2021/06/10 15:27:39;;;;;;;7.5;3.4;;;;;;;21.85;68.47461;98672.64;;;;
2021/06/10 15:37:39;;;;;;;6.4;2.8;;;;;;;22.43;68.58789;98661.7;;;;
2021/06/10 15:47:39;;;;;;;11.1;2.4;;;;;;;23.61;65.08203;98668.42;;;;
2021/06/10 15:57:39;;;;;;;7.4;2.4;;;;;;;23.86;62.36426;98660.97;;;;
2021/06/10 16:07:40;;;;;;;4;2.4;;;;;;;25.54;55.78027;98666.39;;;;
2021/06/10 16:17:40;;;;;;;4.9;2.2;;;;;;;28.68;44.0459;98666.29;;;;
2021/06/10 16:27:41;;;;;;;3.6;1.7;;;;;;;29.85;39.53906;98670.13;;;;
2021/06/10 16:37:42;;;;;;;4.2;1.8;;;;;;;30.55;36.10059;98666.72;;;;
2021/06/10 16:47:46;;;;;;;3.1;1.5;;;;;;;32.24;32.92383;98661.55;;;;
2021/06/10 16:57:45;;;;;;;6.6;2.7;;;;;;;32.18;33.0166;98649.39;;;;
2021/06/10 17:07:46;;;;;;;16.7;6;;;;;;;31.16;33.10938;98649.89;;;;
2021/06/10 17:17:47;;;;;;;5.8;2.6;;;;;;;27.22;39.32227;98644.92;;;;
2021/06/10 17:27:48;;;;;;;3.4;1.2;;;;;;;27.06;41.00195;98653.85;;;;
2021/06/10 17:37:49;;;;;;;2.5;1.4;;;;;;;27.6;37.91992;98657.44;;;;
2021/06/10 17:47:50;;;;;;;5.4;1.9;;;;;;;25.16;42.64355;98642.55;;;;
2021/06/10 17:57:50;;;;;;;4.7;1.5;;;;;;;25.48;46.57422;98645.88;;;;
2021/06/10 18:07:51;;;;;;;4.7;1.6;;;;;;;24.24;48.19531;98656.64;;;;
2021/06/10 18:17:51;;;;;;;5.9;2.3;;;;;;;22.68;52.48242;98658.32;;;;
2021/06/10 18:27:53;;;;;;;3.1;1.6;;;;;;;21.55;55.68164;98663.77;;;;
2021/06/10 18:37:53;;;;;;;3.3;1.5;;;;;;;20.55;58.16992;98664.55;;;;
2021/06/10 18:47:52;;;;;;;4.9;2.5;;;;;;;19.92;63.95996;98680.8;;;;
2021/06/10 18:57:52;;;;;;;5.7;2.1;;;;;;;19.16;69.58789;98676.3;;;;
2021/06/10 19:07:51;;;;;;;5.2;3.4;;;;;;;18.64;72.59082;98692.44;;;;
2021/06/10 19:17:51;;;;;;;8.9;6.1;;;;;;;18.16;74.18066;98694.44;;;;
2021/06/10 19:27:51;;;;;;;8.9;5.8;;;;;;;17.86;73.39355;98693.33;;;;
2021/06/10 19:37:50;;;;;;;7.5;4.8;;;;;;;17.72;75.50586;98685.59;;;;
2021/06/10 19:47:50;;;;;;;13.1;5.2;;;;;;;17.63;81.29004;98704.07;;;;
2021/06/10 19:57:49;;;;;;;12.9;5.9;;;;;;;17.47;80.76855;98708.66;;;;
2021/06/10 20:07:49;;;;;;;7.3;4.5;;;;;;;17.19;84.20508;98716.06;;;;
2021/06/10 20:17:48;;;;;;;7;4.5;;;;;;;16.94;89.28418;98710.72;;;;
2021/06/10 20:37:47;;;;;;;12.2;4.1;;;;;;;16.15;92.48242;98702.47;;;;
2021/06/10 20:47:46;;;;;;;7.5;4.5;;;;;;;15.94;92.08496;98708.02;;;;
2021/06/10 20:57:46;;;;;;;8.5;3.8;;;;;;;15.79;93.35156;98697.84;;;;
2021/06/10 21:07:45;;;;;;;9.4;5.6;;;;;;;15.59;95.97754;98694.06;;;;
2021/06/10 21:17:44;;;;;;;7.4;3.9;;;;;;;15.39;97.66797;98686.75;;;;
2021/06/10 21:27:44;;;;;;;6.5;4.7;;;;;;;15.25;100;98707.98;;;;
2021/06/10 21:37:42;;;;;;;7;4.4;;;;;;;15.24;100;98701.75;;;;
2021/06/10 21:47:42;;;;;;;8.4;4.3;;;;;;;15.16;99.52051;98701.86;;;;
2021/06/10 21:57:41;;;;;;;8;4.7;;;;;;;15.09;99.61914;98700.48;;;;
2021/06/10 22:07:40;;;;;;;8.6;4.5;;;;;;;15.04;100;98702.59;;;;
2021/06/10 22:17:39;;;;;;;15.4;5.3;;;;;;;14.92;100;98689.79;;;;
2021/06/10 22:27:38;;;;;;;7.5;4.5;;;;;;;14.73;100;98692.17;;;;
2021/06/10 22:37:37;;;;;;;7.2;5.2;;;;;;;14.46;100;98692.7;;;;
2021/06/10 22:47:37;;;;;;;10.5;5;;;;;;;14.17;100;98688.08;;;;
2021/06/10 22:57:36;;;;;;;6.2;4.4;;;;;;;13.98;100;98674.17;;;;
2021/06/10 23:07:35;;;;;;;8.9;4.8;;;;;;;13.86;100;98672.15;;;;
2021/06/10 23:17:34;;;;;;;9.5;4.2;;;;;;;13.6;100;98663.36;;;;
2021/06/10 23:27:33;;;;;;;7;4.5;;;;;;;13.55;100;98666.23;;;;
2021/06/10 23:37:32;;;;;;;7;4.8;;;;;;;13.59;100;98673.39;;;;
2021/06/10 23:47:35;;;;;;;7.8;4.6;;;;;;;13.38;100;98675.22;;;;
2021/06/10 23:57:30;;;;;;;8.9;5.9;;;;;;;13.18;100;98673.2;;;;
